»·PEaware :: UAL1399 KGEG-KSEA

UAL1399 :: KGEG-KSEA

FLIGHT INFORMATION

Flight Status: Arrived
Operator:
United Airlines
More flights by this operator :: More flights under this callsign
Pilot: David C. (16084)
Aircraft: AIRBUS A320
(A320)
More flights by this aircraft type
Origin: KGEG Spokane Intl
United States
Destination: KSEA Seattle-Tacoma Intl
United States
More flights between these airports :: More routes between these airports
Route: TEMPL GLASR1
File this flight plan on PilotEdge
Remarks:
Altitude:
(Current/Filed)
24,000ft
Speed:
(Current/Filed)
465kts
Departed: 01-Aug-18 03:30 PM
Arrived: 01-Aug-18 04:11 PM
Distance/Time
Traveled:
193nm/0:41
Distance/Time
To Go:
Arrived

Flight Plot

Page will automatically refresh every two minutes.

Flight plan parsing failed; only flown route is shown


Map Options




Map Legend


Flown Route
Filed Route
Departure Airport
Arrival Airport
Navaid (VOR, NDB)
Fix

Horizontal Profiles

Position Reports

Time Latitude Longitude Heading Altitude Ground
Speed
01-Aug-18 15:04 47.625093 -117.534606 5 2384ft 0kts
01-Aug-18 15:05 47.625093 -117.534606 5 2384ft 0kts
01-Aug-18 15:06 47.625093 -117.534606 5 2384ft 0kts
01-Aug-18 15:07 47.625093 -117.534606 5 2384ft 0kts
01-Aug-18 15:08 47.625093 -117.534606 5 2384ft 0kts
01-Aug-18 15:09 47.625093 -117.534606 5 2384ft 0kts
01-Aug-18 15:10 47.625093 -117.534606 5 2384ft 0kts
01-Aug-18 15:11 47.625093 -117.534606 5 2384ft 0kts
01-Aug-18 15:12 47.625093 -117.534606 5 2384ft 0kts
01-Aug-18 15:13 47.625093 -117.534606 5 2384ft 0kts
01-Aug-18 15:14 47.625093 -117.534606 5 2384ft 0kts
01-Aug-18 15:15 47.625093 -117.534606 5 2384ft 0kts
01-Aug-18 15:16 47.625093 -117.534606 5 2384ft 0kts
01-Aug-18 15:17 47.625093 -117.534606 5 2384ft 0kts
01-Aug-18 15:18 47.624769 -117.534659 5 2384ft 2kts
01-Aug-18 15:19 47.624438 -117.534887 44 2384ft 0kts
01-Aug-18 15:20 47.624439 -117.534887 44 2384ft 0kts
01-Aug-18 15:21 47.624439 -117.534887 44 2384ft 0kts
01-Aug-18 15:22 47.624439 -117.534887 44 2384ft 0kts
01-Aug-18 15:23 47.624439 -117.534887 44 2384ft 0kts
01-Aug-18 15:24 47.624439 -117.534887 44 2384ft 0kts
01-Aug-18 15:25 47.624562 -117.534661 57 2384ft 7kts
01-Aug-18 15:26 47.626391 -117.529573 44 2384ft 18kts
01-Aug-18 15:27 47.630657 -117.523156 44 2384ft 22kts
01-Aug-18 15:28 47.631893 -117.519462 135 2384ft 0kts
01-Aug-18 15:29 47.631893 -117.519462 135 2384ft 0kts
01-Aug-18 15:30 47.630910 -117.518753 210 2384ft 11kts
01-Aug-18 15:31 47.608165 -117.553078 221 3291ft 179kts
01-Aug-18 15:32 47.566337 -117.608000 220 6031ft 213kts
01-Aug-18 15:33 47.540751 -117.685054 275 8522ft 258kts
01-Aug-18 15:34 47.553598 -117.799545 276 11276ft 292kts
01-Aug-18 15:35 47.566706 -117.917948 277 12047ft 293kts
01-Aug-18 15:36 47.579927 -118.037679 277 12196ft 295kts
01-Aug-18 15:37 47.593249 -118.159049 276 14856ft 304kts
01-Aug-18 15:38 47.606779 -118.283599 276 17813ft 312kts
01-Aug-18 15:39 47.620921 -118.415141 275 20106ft 332kts
01-Aug-18 15:40 47.635411 -118.551610 275 22464ft 340kts
01-Aug-18 15:41 47.649764 -118.688535 274 23980ft 363kts
01-Aug-18 15:42 47.666238 -118.846989 275 23976ft 416kts
01-Aug-18 15:43 47.684397 -119.024768 276 23971ft 448kts
01-Aug-18 15:44 47.702702 -119.207459 276 23959ft 448kts
01-Aug-18 15:45 47.720744 -119.390188 276 23954ft 448kts
01-Aug-18 15:46 47.737010 -119.573824 274 23954ft 448kts
01-Aug-18 15:47 47.751381 -119.756114 274 23954ft 448kts
01-Aug-18 15:48 47.765565 -119.939864 274 23940ft 448kts
01-Aug-18 15:49 47.779415 -120.123173 274 23936ft 448kts
01-Aug-18 15:50 47.793027 -120.307401 274 23936ft 448kts
01-Aug-18 15:51 47.806311 -120.491270 274 23936ft 448kts
01-Aug-18 15:52 47.819149 -120.673043 273 23436ft 446kts
01-Aug-18 15:53 47.831583 -120.853374 273 21847ft 430kts
01-Aug-18 15:54 47.843242 -121.026495 274 19290ft 413kts
01-Aug-18 15:55 47.854099 -121.191149 274 16879ft 394kts
01-Aug-18 15:56 47.864243 -121.348280 274 14434ft 380kts
01-Aug-18 15:57 47.873717 -121.498271 275 13001ft 346kts
01-Aug-18 15:58 47.881789 -121.629318 275 12353ft 299kts
01-Aug-18 15:59 47.869882 -121.740858 246 12050ft 291kts
01-Aug-18 16:00 47.840992 -121.838772 246 11355ft 235kts
01-Aug-18 16:01 47.815704 -121.925188 246 9834ft 226kts
01-Aug-18 16:02 47.791150 -122.009564 246 8258ft 222kts
01-Aug-18 16:03 47.766794 -122.092611 246 6692ft 220kts
01-Aug-18 16:04 47.742295 -122.175125 246 5138ft 219kts
01-Aug-18 16:05 47.718091 -122.256048 246 4051ft 197kts
01-Aug-18 16:06 47.677700 -122.302589 203 4012ft 194kts
01-Aug-18 16:07 47.624008 -122.309557 181 3598ft 195kts
01-Aug-18 16:08 47.574050 -122.309921 181 2600ft 177kts
01-Aug-18 16:09 47.526556 -122.310353 181 1697ft 168kts
01-Aug-18 16:10 47.485332 -122.310760 181 901ft 143kts
01-Aug-18 16:11 47.449685 -122.311118 180 442ft 65kts
01-Aug-18 16:12 47.444881 -122.309639 150 442ft 0kts
01-Aug-18 16:13 47.442856 -122.306348 176 442ft 17kts
01-Aug-18 16:14 47.440385 -122.302215 71 442ft 21kts
01-Aug-18 16:15 47.439310 -122.298395 89 442ft 0kts

Navigation Log

Ident Type
Flight plan parsing failed, navigation log unavailable